METAR Data
IDs: Format: Raw Decoded Include TAF

Data at: 0136 UTC 24 Oct 2019

METAR for:KGGI (Grinnell Rgnl, IA, US)
Text:KGGI 240135Z AUTO 34009G15KT 10SM SCT012 OVC029 05/03 A3006 RMK AO2 T00460028
Temperature: 4.6°C ( 40°F)
Dewpoint: 2.8°C ( 37°F) [RH = 88%]
Pressure (altimeter):30.06 inches Hg (1018.0 mb)
Winds:from the NNW (340 degrees) at 10 MPH (9 knots; 4.6 m/s) gusting to 17 MPH (15 knots; 7.7 m/s)
Visibility:10 or more sm (16+ km)
Ceiling:2900 feet AGL
Clouds: scattered clouds at 1200 feet AGL, overcast cloud deck at 2900 feet AGL
QC Flag:automated observation with no human augmentation